Time;durP1;ratioP1;P1;durP2;ratioP2;P2;SDS_P1;SDS_P2;PMS_P1;PMS_P2;Temp;Humidity;BMP_temperature;BMP_pressure;BME280_temperature;BME280_humidity;BME280_pressure;Samples;Min_cycle;Max_cycle;Signal;HPM_P1;HPM_P2
2022/03/13 00:00:57;;;;;;;18.91;14.47;;;;;;;-5.54;82.63;101821.35;473185;111;922492;-65
2022/03/13 00:01:59;;;;;;;24.16;17.86;;;;;;;-5.56;82.56;101813.45;474784;111;922665;-68
2022/03/13 00:03:11;;;;;;;40.85;24.26;;;;;;;-5.58;82.53;101814.49;473991;111;922991;-67
2022/03/13 00:04:15;;;;;;;37.47;22.31;;;;;;;-5.61;82.44;101819.95;474364;111;922667;-65
2022/03/13 00:05:19;;;;;;;32.41;21.01;;;;;;;-5.65;82.28;101818.41;474880;111;922504;-66
2022/03/13 00:06:27;;;;;;;32.53;21.99;;;;;;;-5.72;82.13;101812.55;473988;111;922557;-66
2022/03/13 00:07:34;;;;;;;33.94;21.61;;;;;;;-5.76;81.96;101813.66;473249;111;922493;-66
2022/03/13 00:08:37;;;;;;;33.06;20.23;;;;;;;-5.81;81.85;101815.70;474744;111;922501;-68
2022/03/13 00:09:41;;;;;;;28.72;19.49;;;;;;;-5.85;81.72;101815.95;473154;111;922509;-67
2022/03/13 00:10:47;;;;;;;24.04;17.36;;;;;;;-5.92;81.66;101808.33;473081;111;922462;-65
2022/03/13 00:11:53;;;;;;;22.28;16.10;;;;;;;-5.95;81.54;101812.92;471330;111;922855;-69
2022/03/13 00:12:55;;;;;;;24.87;17.81;;;;;;;-5.99;81.46;101812.23;469953;111;922547;-66
2022/03/13 00:13:58;;;;;;;28.07;19.17;;;;;;;-6.04;81.40;101810.75;466775;112;922556;-67
2022/03/13 00:15:05;;;;;;;22.19;15.82;;;;;;;-6.07;81.36;101814.44;468621;112;930270;-68
2022/03/13 00:16:10;;;;;;;22.28;16.36;;;;;;;-6.11;81.26;101810.20;466970;112;922753;-68
2022/03/13 00:17:16;;;;;;;25.14;16.27;;;;;;;-6.13;81.18;101811.23;467055;112;922585;-66
2022/03/13 00:18:20;;;;;;;20.43;15.97;;;;;;;-6.15;81.19;101800.69;466986;112;930694;-67
2022/03/13 00:19:24;;;;;;;24.93;15.94;;;;;;;-6.15;81.30;101805.13;467063;112;922535;-65
2022/03/13 00:20:28;;;;;;;21.69;16.03;;;;;;;-6.14;81.34;101806.86;468995;112;930551;-65
2022/03/13 00:21:31;;;;;;;21.47;15.64;;;;;;;-6.12;81.47;101811.13;471728;112;922649;-65
2022/03/13 00:22:36;;;;;;;21.61;15.89;;;;;;;-6.10;81.52;101811.92;471579;112;930543;-69
2022/03/13 00:23:39;;;;;;;21.78;14.35;;;;;;;-6.08;81.50;101812.72;471355;112;930784;-66
2022/03/13 00:24:42;;;;;;;19.51;14.90;;;;;;;-6.06;81.57;101807.30;470831;112;930514;-67
2022/03/13 00:25:46;;;;;;;21.37;14.59;;;;;;;-6.07;81.51;101810.92;467487;112;922625;-67
2022/03/13 00:26:52;;;;;;;17.27;13.89;;;;;;;-6.07;81.47;101810.92;471568;112;930567;-67
2022/03/13 00:27:55;;;;;;;16.64;13.93;;;;;;;-6.08;81.37;101803.89;469391;112;930495;-67
2022/03/13 00:28:59;;;;;;;18.08;13.16;;;;;;;-6.08;81.43;101803.89;466790;112;923357;-69
2022/03/13 00:30:05;;;;;;;16.71;13.46;;;;;;;-6.08;81.36;101807.41;469375;112;930422;-66
2022/03/13 00:31:09;;;;;;;13.68;11.74;;;;;;;-6.09;81.34;101813.65;471463;112;922470;-65
2022/03/13 00:32:12;;;;;;;16.33;12.71;;;;;;;-6.09;81.33;101810.99;471652;112;922712;-69
2022/03/13 00:33:17;;;;;;;14.17;11.49;;;;;;;-6.09;81.30;101808.34;466628;112;923573;-65
2022/03/13 00:34:21;;;;;;;19.34;11.96;;;;;;;-6.10;81.22;101811.06;466816;112;922461;-68
2022/03/13 00:35:24;;;;;;;16.15;11.18;;;;;;;-6.12;81.27;101807.65;467134;112;930577;-68
2022/03/13 00:36:27;;;;;;;14.31;11.25;;;;;;;-6.14;81.19;101804.20;467900;112;922584;-66
2022/03/13 00:37:32;;;;;;;12.76;9.59;;;;;;;-6.16;81.21;101806.06;467077;112;930340;-69
2022/03/13 00:38:35;;;;;;;11.96;10.18;;;;;;;-6.17;81.06;101801.69;467168;112;923030;-65
2022/03/13 00:39:40;;;;;;;12.93;9.91;;;;;;;-6.20;81.05;101805.38;467053;112;922478;-68
2022/03/13 00:40:48;;;;;;;9.94;8.83;;;;;;;-6.21;81.01;101805.44;467176;112;922592;-68
2022/03/13 00:41:49;;;;;;;11.00;8.93;;;;;;;-6.22;81.00;101809.03;466929;112;930682;-67
2022/03/13 00:42:52;;;;;;;11.14;9.59;;;;;;;-6.24;80.95;101808.27;467152;112;922532;-69
2022/03/13 00:43:56;;;;;;;12.80;9.54;;;;;;;-6.24;80.93;101808.27;467122;112;931049;-68
2022/03/13 00:44:59;;;;;;;9.80;8.51;;;;;;;-6.25;80.93;101810.06;467235;112;922592;-69
2022/03/13 00:46:03;;;;;;;10.33;9.18;;;;;;;-6.25;80.88;101812.72;469693;112;922706;-65
2022/03/13 00:47:06;;;;;;;10.82;9.26;;;;;;;-6.25;80.88;101806.55;471614;112;930559;-67
2022/03/13 00:48:10;;;;;;;16.21;14.24;;;;;;;-6.26;80.96;101805.69;471540;112;930639;-68
2022/03/13 00:49:13;;;;;;;22.45;16.79;;;;;;;-6.25;81.04;101802.09;471659;112;922683;-66
2022/03/13 00:50:17;;;;;;;23.32;17.57;;;;;;;-6.24;81.12;101806.48;471680;112;922977;-66
2022/03/13 00:51:20;;;;;;;23.61;15.95;;;;;;;-6.20;81.26;101809.82;471462;112;922526;-68
2022/03/13 00:52:24;;;;;;;20.17;15.99;;;;;;;-6.16;81.38;101808.72;471576;112;930460;-68
2022/03/13 00:53:27;;;;;;;18.64;14.71;;;;;;;-6.14;81.51;101807.72;470393;112;930507;-68
2022/03/13 00:54:33;;;;;;;17.18;14.34;;;;;;;-6.10;81.59;101811.06;471610;112;922891;-68
2022/03/13 00:55:36;;;;;;;18.13;13.78;;;;;;;-6.06;81.71;101808.16;467851;112;923044;-68
2022/03/13 00:56:39;;;;;;;21.11;13.76;;;;;;;-6.02;81.83;101816.86;467118;112;923033;-67
2022/03/13 00:57:44;;;;;;;21.22;14.88;;;;;;;-5.99;81.92;101806.92;466849;112;930591;-66
2022/03/13 00:58:48;;;;;;;20.12;15.16;;;;;;;-5.93;82.05;101814.58;467105;112;923280;-68
2022/03/13 00:59:51;;;;;;;20.72;14.33;;;;;;;-5.90;82.15;101809.09;467090;112;922667;-68
2022/03/13 01:00:54;;;;;;;16.74;13.46;;;;;;;-5.87;82.18;101808.09;467077;112;923748;-67
2022/03/13 01:01:58;;;;;;;17.71;14.42;;;;;;;-5.84;82.24;101810.53;469465;112;930507;-68
2022/03/13 01:03:02;;;;;;;18.50;13.08;;;;;;;-5.82;82.25;101813.98;471513;112;930527;-69
2022/03/13 01:04:06;;;;;;;18.00;14.08;;;;;;;-5.81;82.29;101810.39;470891;112;922626;-67
2022/03/13 01:05:10;;;;;;;14.28;12.52;;;;;;;-5.79;82.37;101821.80;469147;112;923138;-68
2022/03/13 01:06:15;;;;;;;13.72;11.27;;;;;;;-5.79;82.36;101811.18;469669;112;922629;-66
2022/03/13 01:07:19;;;;;;;13.98;11.91;;;;;;;-5.77;82.38;101814.59;469134;112;923035;-65
2022/03/13 01:08:22;;;;;;;13.86;11.88;;;;;;;-5.77;82.35;101809.28;471388;112;922688;-68
2022/03/13 01:09:27;;;;;;;14.81;11.54;;;;;;;-5.74;82.42;101816.25;467709;112;922687;-68
2022/03/13 01:10:30;;;;;;;12.66;11.21;;;;;;;-5.74;82.36;101817.11;467458;112;930362;-68
2022/03/13 01:11:33;;;;;;;14.46;11.88;;;;;;;-5.73;82.47;101817.97;469351;112;930415;-67
2022/03/13 01:12:37;;;;;;;11.82;10.60;;;;;;;-5.74;82.41;101817.11;471613;112;922732;-68
2022/03/13 01:13:40;;;;;;;13.38;11.93;;;;;;;-5.73;82.44;101817.97;474569;111;922540;-70
2022/03/13 01:14:46;;;;;;;13.56;11.89;;;;;;;-5.76;82.29;101823.42;474609;111;922570;-68
2022/03/13 01:15:49;;;;;;;16.07;12.23;;;;;;;-5.78;82.19;101823.49;475093;111;922592;-66
2022/03/13 01:17:02;;;;;;;12.88;11.24;;;;;;;-5.79;82.13;101818.29;475369;111;922568;-70
2022/03/13 01:18:06;;;;;;;12.87;11.42;;;;;;;-5.80;82.25;101825.39;475289;111;922559;-69
2022/03/13 01:19:09;;;;;;;19.75;12.98;;;;;;;-5.79;82.18;101823.59;474422;111;922490;-67
2022/03/13 01:20:19;;;;;;;15.26;12.51;;;;;;;-5.79;82.34;101829.77;475410;111;922591;-67
2022/03/13 01:21:24;;;;;;;13.66;12.19;;;;;;;-5.79;82.35;101829.77;475114;111;930416;-68
2022/03/13 01:22:27;;;;;;;12.75;11.37;;;;;;;-5.78;82.31;101833.26;475127;111;922637;-66
2022/03/13 01:23:30;;;;;;;14.79;12.55;;;;;;;-5.78;82.46;101831.47;475749;111;930905;-68
2022/03/13 01:24:44;;;;;;;12.26;11.00;;;;;;;-5.77;82.35;101829.67;474986;111;922909;-68
2022/03/13 01:25:44;;;;;;;14.43;11.37;;;;;;;-5.78;82.29;101831.47;474563;111;922484;-66
2022/03/13 01:26:53;;;;;;;13.97;11.36;;;;;;;-5.81;82.23;101830.77;475250;111;930437;-68
2022/03/13 01:27:57;;;;;;;13.85;12.37;;;;;;;-5.83;82.11;101833.50;473677;111;922963;-67
2022/03/13 01:29:03;;;;;;;16.02;13.27;;;;;;;-5.84;82.09;101834.44;475231;111;923085;-68
2022/03/13 01:30:10;;;;;;;16.44;13.41;;;;;;;-5.85;82.13;101838.05;475409;111;930356;-68
2022/03/13 01:31:13;;;;;;;14.72;12.26;;;;;;;-5.84;82.18;101841.58;474575;111;922593;-67
2022/03/13 01:32:17;;;;;;;15.35;12.59;;;;;;;-5.84;82.24;101837.09;475493;111;922534;-66
2022/03/13 01:33:20;;;;;;;17.24;13.25;;;;;;;-5.83;82.26;101833.50;474149;111;922549;-65
2022/03/13 01:34:35;;;;;;;16.59;12.08;;;;;;;-5.83;82.25;101838.81;475455;111;922938;-66
2022/03/13 01:35:39;;;;;;;13.20;11.59;;;;;;;-5.82;82.21;101835.23;475549;111;923149;-68
2022/03/13 01:36:42;;;;;;;15.83;12.48;;;;;;;-5.81;82.29;101839.61;475718;111;922532;-66
2022/03/13 01:37:45;;;;;;;14.28;11.89;;;;;;;-5.80;82.36;101837.81;474129;111;922614;-67
2022/03/13 01:38:56;;;;;;;12.12;10.87;;;;;;;-5.80;82.37;101837.81;474671;111;922978;-66
2022/03/13 01:40:02;;;;;;;16.96;10.65;;;;;;;-5.80;82.37;101840.47;474284;111;930504;-68
2022/03/13 01:41:06;;;;;;;13.56;11.11;;;;;;;-5.80;82.33;101835.16;474896;111;923023;-65
2022/03/13 01:42:10;;;;;;;14.34;12.14;;;;;;;-5.81;82.34;101836.95;475131;111;922656;-67
2022/03/13 01:43:14;;;;;;;12.41;10.56;;;;;;;-5.80;82.38;101843.13;466252;113;922674;-69
2022/03/13 01:44:19;;;;;;;13.53;11.74;;;;;;;-5.81;82.36;101847.58;467142;111;922643;-68
2022/03/13 01:45:25;;;;;;;15.32;12.23;;;;;;;-5.80;82.36;101845.78;475215;111;922607;-65
2022/03/13 01:46:29;;;;;;;15.40;12.19;;;;;;;-5.80;82.33;101848.44;475234;111;922846;-67
2022/03/13 01:47:33;;;;;;;12.97;11.66;;;;;;;-5.81;82.34;101842.27;474782;111;922556;-67
2022/03/13 01:48:41;;;;;;;13.40;11.86;;;;;;;-5.83;82.18;101848.58;476114;111;922836;-68
2022/03/13 01:49:46;;;;;;;14.48;12.56;;;;;;;-5.86;82.04;101854.92;472456;111;922565;-66
2022/03/13 01:50:50;;;;;;;14.33;12.79;;;;;;;-5.91;81.93;101851.68;475081;111;922547;-65
2022/03/13 01:51:53;;;;;;;14.82;12.94;;;;;;;-5.95;81.82;101848.30;475773;111;923036;-66
2022/03/13 01:52:56;;;;;;;15.64;12.44;;;;;;;-5.99;81.63;101856.51;475372;111;922639;-67
2022/03/13 01:54:02;;;;;;;14.68;12.54;;;;;;;-6.05;81.62;101852.37;474524;111;922597;-67
2022/03/13 01:55:07;;;;;;;14.74;12.96;;;;;;;-6.09;81.48;101852.61;475447;111;922942;-68
2022/03/13 01:56:11;;;;;;;14.38;12.98;;;;;;;-6.13;81.35;101851.91;474437;111;923131;-67
2022/03/13 01:57:17;;;;;;;16.82;14.24;;;;;;;-6.17;81.32;101852.98;475217;111;922830;-68
2022/03/13 01:58:22;;;;;;;16.44;14.02;;;;;;;-6.21;81.18;101856.73;474890;111;922583;-68
2022/03/13 01:59:29;;;;;;;18.89;15.38;;;;;;;-6.24;81.17;101859.55;474488;111;923538;-68
2022/03/13 02:00:33;;;;;;;19.53;15.66;;;;;;;-6.26;81.13;101858.77;474936;111;922967;-67
2022/03/13 02:01:39;;;;;;;21.90;16.85;;;;;;;-6.29;81.02;101863.38;475005;111;922471;-67
2022/03/13 02:02:46;;;;;;;23.00;17.16;;;;;;;-6.32;81.07;101864.37;475113;111;922723;-68
2022/03/13 02:03:50;;;;;;;26.73;17.76;;;;;;;-6.30;81.16;101859.00;475713;111;922623;-67
2022/03/13 02:04:55;;;;;;;27.99;19.65;;;;;;;-6.29;81.19;101868.68;475352;111;922438;-69
2022/03/13 02:05:58;;;;;;;31.29;20.04;;;;;;;-6.28;81.24;101867.75;474730;111;922670;-68
2022/03/13 02:07:03;;;;;;;32.66;20.82;;;;;;;-6.27;81.31;101870.30;473963;111;922911;-69
2022/03/13 02:08:21;;;;;;;32.56;20.89;;;;;;;-6.25;81.40;101862.28;475488;111;923815;-67
2022/03/13 02:09:25;;;;;;;30.31;20.08;;;;;;;-6.23;81.40;101863.94;473723;110;922607;-68
2022/03/13 02:10:28;;;;;;;30.06;20.88;;;;;;;-6.21;81.47;101869.14;475410;109;923237;-69
2022/03/13 02:11:40;;;;;;;30.87;21.15;;;;;;;-6.19;81.55;101869.94;474736;109;930483;-67
2022/03/13 02:12:43;;;;;;;36.71;21.23;;;;;;;-6.17;81.64;101868.05;474334;111;922484;-69
2022/03/13 02:13:52;;;;;;;26.82;19.34;;;;;;;-6.14;81.65;101873.22;474292;111;922512;-68
2022/03/13 02:14:56;;;;;;;34.28;20.86;;;;;;;-6.12;81.84;101874.84;474785;111;922533;-69
2022/03/13 02:15:59;;;;;;;33.54;21.45;;;;;;;-6.08;81.94;101872.91;473339;111;922665;-68
2022/03/13 02:17:03;;;;;;;33.63;22.02;;;;;;;-6.07;81.92;101877.30;474585;111;922639;-70
2022/03/13 02:18:07;;;;;;;37.48;22.72;;;;;;;-6.06;82.01;101869.23;474059;110;930495;-68
2022/03/13 02:19:10;;;;;;;32.16;21.86;;;;;;;-6.05;82.05;101872.75;474100;111;922596;-69
2022/03/13 02:20:18;;;;;;;32.02;21.15;;;;;;;-6.06;81.89;101877.19;474441;111;922729;-68
2022/03/13 02:21:27;;;;;;;34.33;21.36;;;;;;;-6.07;81.81;101872.84;473736;111;930137;-68
2022/03/13 02:22:31;;;;;;;36.80;21.64;;;;;;;-6.07;81.84;101874.64;474111;111;922778;-68
2022/03/13 02:23:36;;;;;;;42.73;23.49;;;;;;;-6.08;81.83;101875.57;474005;111;922391;-69
2022/03/13 02:24:40;;;;;;;40.89;23.10;;;;;;;-6.08;81.87;101883.53;474712;111;922866;-66
2022/03/13 02:25:44;;;;;;;37.18;22.54;;;;;;;-6.07;82.02;101878.16;473607;111;922442;-68
2022/03/13 02:26:58;;;;;;;41.72;23.67;;;;;;;-6.06;81.93;101876.33;473641;111;922453;-68
2022/03/13 02:28:02;;;;;;;43.97;22.57;;;;;;;-6.06;81.94;101884.30;474174;111;922328;-68
2022/03/13 02:29:09;;;;;;;39.75;22.82;;;;;;;-6.05;81.94;101883.37;474262;111;922687;-69
2022/03/13 02:30:14;;;;;;;34.94;22.08;;;;;;;-6.06;81.94;101882.50;474484;111;922277;-68
2022/03/13 02:31:21;;;;;;;28.54;19.69;;;;;;;-6.06;82.05;101877.19;474499;111;922512;-68
2022/03/13 02:32:25;;;;;;;28.94;20.45;;;;;;;-6.03;82.06;101887.67;473951;111;922771;-68
2022/03/13 02:33:29;;;;;;;31.51;20.13;;;;;;;-6.03;82.06;101884.16;474749;111;922491;-68
2022/03/13 02:34:32;;;;;;;27.79;19.04;;;;;;;-6.04;81.97;101887.74;474524;111;930394;-67
2022/03/13 02:35:35;;;;;;;33.21;20.85;;;;;;;-6.04;81.93;101890.40;473756;111;922601;-67
2022/03/13 02:36:43;;;;;;;31.12;20.77;;;;;;;-6.04;81.93;101893.05;474833;111;922673;-68
2022/03/13 02:37:47;;;;;;;28.52;20.92;;;;;;;-6.04;81.96;101893.91;470815;111;922773;-68
2022/03/13 02:38:51;;;;;;;33.37;20.16;;;;;;;-6.04;81.89;101890.40;473588;111;922606;-67
2022/03/13 02:39:54;;;;;;;37.01;20.04;;;;;;;-6.04;81.90;101887.74;473272;111;922530;-68
2022/03/13 02:40:59;;;;;;;31.91;19.79;;;;;;;-6.06;81.84;101893.12;474407;111;930606;-68
2022/03/13 02:42:07;;;;;;;23.09;18.22;;;;;;;-6.07;81.85;101893.22;474783;111;922638;-68
2022/03/13 02:43:11;;;;;;;26.45;18.03;;;;;;;-6.06;81.79;101894.91;473716;111;922944;-68
2022/03/13 02:44:17;;;;;;;27.89;19.27;;;;;;;-6.08;81.83;101894.16;474536;111;923314;-67
2022/03/13 02:45:32;;;;;;;25.24;18.16;;;;;;;-6.09;81.79;101900.39;474043;111;930389;-66
2022/03/13 02:46:57;;;;;;;28.00;18.14;;;;;;;-6.10;81.73;101896.02;473960;111;922705;-66
2022/03/13 02:48:03;;;;;;;28.72;18.32;;;;;;;-6.11;81.68;101897.80;473858;111;922974;-68
2022/03/13 02:49:06;;;;;;;27.84;18.54;;;;;;;-6.14;81.62;101897.97;474461;111;922930;-66
2022/03/13 02:50:10;;;;;;;29.34;18.82;;;;;;;-6.19;81.53;101900.00;474278;111;922611;-67
2022/03/13 02:51:13;;;;;;;32.47;20.36;;;;;;;-6.19;81.50;101912.41;473768;111;922804;-68
2022/03/13 02:52:16;;;;;;;32.75;20.05;;;;;;;-6.22;81.53;101910.75;473795;111;922482;-67
2022/03/13 02:53:20;;;;;;;32.75;20.34;;;;;;;-6.21;81.53;101908.95;473781;111;922484;-68
2022/03/13 02:54:23;;;;;;;36.16;21.28;;;;;;;-6.21;81.53;101908.95;473473;111;923219;-67
2022/03/13 02:55:26;;;;;;;33.63;21.69;;;;;;;-6.20;81.60;101910.68;473343;111;923005;-67
2022/03/13 02:56:29;;;;;;;30.67;20.62;;;;;;;-6.20;81.65;101903.58;474649;111;922556;-67
2022/03/13 02:57:35;;;;;;;37.23;21.27;;;;;;;-6.19;81.70;101913.27;474527;111;922903;-67
2022/03/13 02:58:38;;;;;;;31.76;21.26;;;;;;;-6.20;81.71;101911.55;474518;111;922474;-66
2022/03/13 02:59:42;;;;;;;32.30;21.27;;;;;;;-6.17;81.74;101913.17;474686;111;922895;-68
2022/03/13 03:00:48;;;;;;;36.52;20.78;;;;;;;-6.17;81.72;101913.17;473900;111;922621;-67
2022/03/13 03:01:52;;;;;;;37.43;21.52;;;;;;;-6.18;81.69;101914.99;474834;111;930451;-68
2022/03/13 03:02:56;;;;;;;32.73;19.60;;;;;;;-6.18;81.77;101917.65;474141;111;922668;-65
2022/03/13 03:04:01;;;;;;;40.78;21.99;;;;;;;-6.17;81.80;101921.13;473764;111;922504;-68
2022/03/13 03:05:06;;;;;;;32.73;21.14;;;;;;;-6.16;81.83;101928.17;473873;111;922864;-65
2022/03/13 03:06:12;;;;;;;30.96;20.08;;;;;;;-6.16;81.84;101925.52;473449;111;922783;-68
2022/03/13 03:07:16;;;;;;;31.64;19.33;;;;;;;-6.14;81.82;101927.17;474971;111;922565;-68
2022/03/13 03:08:21;;;;;;;30.94;19.39;;;;;;;-6.13;81.92;101928.03;474162;111;922555;-67
2022/03/13 03:09:26;;;;;;;33.94;20.89;;;;;;;-6.12;81.93;101927.10;472991;111;922527;-68
2022/03/13 03:10:29;;;;;;;31.25;19.53;;;;;;;-6.11;81.90;101932.31;473986;111;922565;-66
2022/03/13 03:11:34;;;;;;;29.95;19.23;;;;;;;-6.11;81.93;101934.11;473638;111;922596;-70
2022/03/13 03:12:37;;;;;;;24.78;18.20;;;;;;;-6.09;81.96;101934.91;474185;111;930393;-65
2022/03/13 03:13:41;;;;;;;21.50;17.51;;;;;;;-6.10;81.95;101933.17;474531;111;922731;-67
2022/03/13 03:14:46;;;;;;;26.71;17.49;;;;;;;-6.10;81.96;101928.73;474128;111;922733;-66
2022/03/13 03:15:49;;;;;;;23.78;17.02;;;;;;;-6.10;82.00;101928.73;474310;111;922788;-68
2022/03/13 03:16:54;;;;;;;25.59;17.19;;;;;;;-6.09;82.02;101938.42;473061;111;922566;-68
2022/03/13 03:17:58;;;;;;;26.08;16.59;;;;;;;-6.09;82.10;101938.42;474580;111;930573;-69
2022/03/13 03:19:01;;;;;;;21.56;15.98;;;;;;;-6.09;82.00;101937.56;463757;114;922576;-68
2022/03/13 03:20:07;;;;;;;18.61;15.24;;;;;;;-6.09;82.03;101942.87;458625;115;930644;-68
2022/03/13 03:21:13;;;;;;;23.06;16.66;;;;;;;-6.09;82.01;101943.73;457650;115;922812;-67
2022/03/13 03:22:16;;;;;;;22.08;15.28;;;;;;;-6.08;82.08;101949.91;463016;114;922510;-68
2022/03/13 03:23:19;;;;;;;23.93;16.45;;;;;;;-6.08;82.08;101941.94;464043;114;922884;-66
2022/03/13 03:24:25;;;;;;;18.08;14.13;;;;;;;-6.08;81.97;101947.25;464762;114;930559;-66
2022/03/13 03:25:28;;;;;;;18.67;15.34;;;;;;;-6.09;82.04;101945.52;464415;114;922517;-68
2022/03/13 03:26:33;;;;;;;18.33;15.18;;;;;;;-6.11;82.06;101940.28;464331;114;922659;-65
2022/03/13 03:27:41;;;;;;;21.81;15.50;;;;;;;-6.10;82.01;101951.76;464688;114;922668;-66
2022/03/13 03:28:46;;;;;;;18.32;14.32;;;;;;;-6.11;81.90;101947.38;463469;114;930551;-67
2022/03/13 03:29:49;;;;;;;17.45;15.05;;;;;;;-6.12;81.86;101945.69;463811;114;922580;-67
2022/03/13 03:30:53;;;;;;;16.10;13.74;;;;;;;-6.13;81.79;101951.92;463315;114;922548;-66
2022/03/13 03:31:57;;;;;;;14.85;12.40;;;;;;;-6.15;81.81;101941.38;464080;114;930573;-66
2022/03/13 03:33:03;;;;;;;14.57;11.89;;;;;;;-6.16;81.75;101944.95;464062;113;922397;-64
2022/03/13 03:34:12;;;;;;;14.08;12.33;;;;;;;-6.17;81.64;101950.33;465747;114;922729;-68
2022/03/13 03:35:19;;;;;;;13.94;11.36;;;;;;;-6.19;81.65;101946.91;464322;114;922764;-64
2022/03/13 03:36:25;;;;;;;12.90;11.54;;;;;;;-6.22;81.50;101947.05;465350;114;922517;-67
2022/03/13 03:37:33;;;;;;;13.16;11.84;;;;;;;-6.26;81.40;101953.44;464932;114;922973;-69
2022/03/13 03:38:37;;;;;;;13.47;11.59;;;;;;;-6.32;81.37;101952.80;463114;114;922904;-69
2022/03/13 03:39:40;;;;;;;13.44;11.89;;;;;;;-6.36;81.14;101960.99;464146;114;922611;-67
2022/03/13 03:40:44;;;;;;;15.95;12.68;;;;;;;-6.42;81.05;101956.84;464286;114;922974;-66
2022/03/13 03:41:49;;;;;;;13.89;11.77;;;;;;;-6.46;81.00;101955.27;463326;114;930383;-65
2022/03/13 03:43:00;;;;;;;14.14;12.18;;;;;;;-6.50;80.82;101953.67;464217;114;930344;-67
2022/03/13 03:44:05;;;;;;;15.24;12.13;;;;;;;-6.52;80.84;101958.21;464954;113;923056;-68
2022/03/13 03:45:09;;;;;;;14.72;11.78;;;;;;;-6.53;80.91;101960.92;463814;114;922986;-69
2022/03/13 03:46:16;;;;;;;14.06;11.46;;;;;;;-6.57;80.85;101954.05;464462;112;923296;-67
2022/03/13 03:47:19;;;;;;;14.02;11.36;;;;;;;-6.59;80.79;101961.21;457612;116;922733;-67
2022/03/13 03:48:22;;;;;;;11.79;10.52;;;;;;;-6.62;80.79;101956.93;461988;114;922648;-68
2022/03/13 03:49:26;;;;;;;12.38;10.26;;;;;;;-6.65;80.73;101959.70;460630;115;930333;-67
2022/03/13 03:50:29;;;;;;;13.99;10.74;;;;;;;-6.68;80.68;101965.17;461028;115;922988;-67
2022/03/13 03:51:33;;;;;;;12.83;10.88;;;;;;;-6.72;80.64;101955.61;460918;115;930410;-67
2022/03/13 03:52:37;;;;;;;14.65;11.51;;;;;;;-6.75;80.57;101956.63;461037;115;922513;-67
2022/03/13 03:53:40;;;;;;;16.11;13.33;;;;;;;-6.77;80.61;101960.27;460979;115;922763;-67
2022/03/13 03:54:44;;;;;;;13.23;11.06;;;;;;;-6.78;80.59;101959.41;461018;115;930381;-69
2022/03/13 03:55:47;;;;;;;14.35;11.43;;;;;;;-6.81;80.51;101964.86;461032;115;922528;-69
2022/03/13 03:56:51;;;;;;;16.06;11.57;;;;;;;-6.82;80.48;101957.83;460996;115;930337;-67
2022/03/13 03:57:54;;;;;;;15.08;12.26;;;;;;;-6.83;80.37;101965.84;461046;115;930389;-68
2022/03/13 03:58:58;;;;;;;14.59;11.66;;;;;;;-6.83;80.41;101957.89;460916;115;930458;-67
2022/03/13 04:00:01;;;;;;;12.95;11.25;;;;;;;-6.84;80.42;101965.02;460824;115;930368;-66
2022/03/13 04:01:05;;;;;;;18.72;14.83;;;;;;;-6.85;80.41;101968.59;460681;115;923976;-68
2022/03/13 04:02:09;;;;;;;23.79;16.27;;;;;;;-6.82;80.46;101962.27;460940;115;923392;-66
2022/03/13 04:03:12;;;;;;;21.09;15.19;;;;;;;-6.80;80.61;101965.73;460924;114;922649;-67
2022/03/13 04:04:17;;;;;;;18.46;14.46;;;;;;;-6.75;80.77;101969.02;460841;115;923130;-67
2022/03/13 04:05:20;;;;;;;17.49;13.61;;;;;;;-6.70;80.88;101972.32;460802;115;931034;-67
2022/03/13 04:06:24;;;;;;;16.64;13.43;;;;;;;-6.64;81.07;101964.08;460943;115;930575;-68
2022/03/13 04:07:27;;;;;;;18.86;13.30;;;;;;;-6.56;81.31;101966.39;461066;113;930359;-68
2022/03/13 04:08:30;;;;;;;14.65;12.66;;;;;;;-6.51;81.45;101973.20;457234;116;922632;-68
2022/03/13 04:09:34;;;;;;;14.53;12.28;;;;;;;-6.45;81.55;101970.23;455761;116;923094;-69
2022/03/13 04:10:37;;;;;;;15.43;11.33;;;;;;;-6.41;81.55;101974.48;460962;115;923087;-67
2022/03/13 04:11:40;;;;;;;14.46;11.53;;;;;;;-6.36;81.61;101971.61;461017;115;922757;-66
2022/03/13 04:12:44;;;;;;;17.46;12.71;;;;;;;-6.34;81.71;101967.93;461092;115;922637;-67
2022/03/13 04:13:47;;;;;;;15.94;11.54;;;;;;;-6.28;81.75;101971.25;461061;115;922671;-68
2022/03/13 04:14:52;;;;;;;13.56;11.88;;;;;;;-6.24;81.86;101968.38;461539;114;922531;-68
2022/03/13 04:15:56;;;;;;;15.29;12.14;;;;;;;-6.21;81.85;101972.66;462053;114;923114;-67
2022/03/13 04:16:59;;;;;;;13.73;11.47;;;;;;;-6.19;81.92;101971.66;462046;114;922624;-66
2022/03/13 04:18:02;;;;;;;17.01;12.21;;;;;;;-6.17;81.79;101974.22;461762;114;922584;-65
2022/03/13 04:19:06;;;;;;;13.84;11.64;;;;;;;-6.17;81.79;101974.22;462075;114;922628;-67
2022/03/13 04:20:11;;;;;;;15.19;10.94;;;;;;;-6.17;81.72;101971.56;458798;114;923393;-67
2022/03/13 04:21:15;;;;;;;12.97;11.53;;;;;;;-6.17;81.74;101963.60;457884;115;930439;-69
2022/03/13 04:22:18;;;;;;;14.92;12.19;;;;;;;-6.17;81.69;101972.43;465608;113;922502;-68
2022/03/13 04:23:21;;;;;;;13.57;11.29;;;;;;;-6.17;81.66;101975.08;466035;113;922569;-67
2022/03/13 04:24:25;;;;;;;16.01;12.84;;;;;;;-6.18;81.58;101975.18;463802;114;923625;-67
2022/03/13 04:25:28;;;;;;;13.83;12.07;;;;;;;-6.20;81.52;101975.24;462148;114;922609;-68
2022/03/13 04:26:32;;;;;;;12.12;10.54;;;;;;;-6.22;81.42;101977.10;459232;114;922525;-66
2022/03/13 04:27:35;;;;;;;12.65;10.47;;;;;;;-6.22;81.39;101973.58;457891;115;922574;-66
2022/03/13 04:28:38;;;;;;;15.24;12.95;;;;;;;-6.22;81.48;101977.10;458792;115;922552;-66
2022/03/13 04:29:42;;;;;;;17.65;13.41;;;;;;;-6.20;81.54;101979.69;461795;114;922624;-67
2022/03/13 04:30:47;;;;;;;21.25;14.81;;;;;;;-6.22;81.53;101970.93;465480;113;922893;-67
2022/03/13 04:31:54;;;;;;;19.72;15.35;;;;;;;-6.22;81.36;101981.55;465936;113;922595;-68
2022/03/13 04:32:57;;;;;;;18.44;15.96;;;;;;;-6.24;81.36;101986.95;466276;113;922532;-68
2022/03/13 04:34:01;;;;;;;19.83;15.61;;;;;;;-6.25;81.37;101984.36;463682;114;922693;-69
2022/03/13 04:35:04;;;;;;;20.98;15.11;;;;;;;-6.27;81.26;101983.56;465681;113;922609;-67
2022/03/13 04:36:12;;;;;;;23.35;15.97;;;;;;;-6.29;81.29;101991.62;465564;113;922689;-68
2022/03/13 04:37:16;;;;;;;20.94;16.08;;;;;;;-6.35;81.21;101983.95;464969;113;922574;-68
2022/03/13 04:38:20;;;;;;;19.09;16.37;;;;;;;-6.38;81.17;101979.63;465549;113;923155;-68
2022/03/13 04:39:23;;;;;;;17.54;15.22;;;;;;;-6.39;81.16;101985.86;465768;113;922952;-69
2022/03/13 04:40:26;;;;;;;19.00;16.20;;;;;;;-6.38;81.25;101981.42;465924;113;922909;-67
2022/03/13 04:41:30;;;;;;;23.09;16.13;;;;;;;-6.35;81.37;101992.77;465883;113;922640;-69
2022/03/13 04:42:33;;;;;;;18.16;16.24;;;;;;;-6.34;81.43;101983.85;466199;113;922927;-67
2022/03/13 04:43:37;;;;;;;23.44;18.86;;;;;;;-6.29;81.38;101985.45;465331;113;924902;-68
2022/03/13 04:44:40;;;;;;;55.74;30.70;;;;;;;-6.28;81.40;101987.17;465464;113;922666;-66
2022/03/13 04:45:43;;;;;;;36.62;24.92;;;;;;;-6.28;81.32;101992.48;465354;113;930552;-67
2022/03/13 04:46:47;;;;;;;29.07;20.59;;;;;;;-6.28;81.41;101982.70;466337;113;922578;-67
2022/03/13 04:47:50;;;;;;;34.67;24.57;;;;;;;-6.30;81.25;101994.34;463725;114;930318;-68
2022/03/13 04:48:54;;;;;;;32.38;23.38;;;;;;;-6.33;81.13;101987.37;466279;113;930522;-67
2022/03/13 04:49:57;;;;;;;29.57;21.12;;;;;;;-6.39;81.01;101983.21;465937;113;922564;-65
2022/03/13 04:51:01;;;;;;;20.59;18.11;;;;;;;-6.39;81.01;101983.21;465948;113;923107;-65